createdAt,value
2023-04-14T00:02:14.176Z,7.03
2023-04-14T00:04:44.649Z,6.57
2023-04-14T00:07:13.801Z,5.95
2023-04-14T00:09:43.108Z,6.10
2023-04-14T00:12:12.790Z,5.78
2023-04-14T00:14:42.827Z,4.88
2023-04-14T00:17:11.159Z,5.50
2023-04-14T00:19:37.954Z,5.53
2023-04-14T00:22:04.599Z,6.20
2023-04-14T00:24:31.270Z,5.90
2023-04-14T00:26:57.987Z,6.03
2023-04-14T00:29:24.747Z,5.95
2023-04-14T00:31:51.392Z,5.90
2023-04-14T00:34:18.099Z,6.00
2023-04-14T00:36:46.245Z,6.32
2023-04-14T00:39:12.942Z,5.82
2023-04-14T00:41:40.982Z,6.30
2023-04-14T00:44:07.665Z,5.80
2023-04-14T00:46:36.390Z,6.25
2023-04-14T00:49:04.069Z,6.20
2023-04-14T00:51:33.909Z,5.60
2023-04-14T00:54:08.614Z,6.35
2023-04-14T00:56:36.157Z,5.55
2023-04-14T00:59:03.506Z,5.47
2023-04-14T01:01:31.096Z,6.78
2023-04-14T01:03:58.653Z,5.80
2023-04-14T01:06:25.459Z,6.00
2023-04-14T01:08:52.153Z,6.40
2023-04-14T01:11:27.481Z,5.82
2023-04-14T01:13:57.289Z,5.10
2023-04-14T01:16:32.385Z,5.25
2023-04-14T01:19:37.188Z,5.55
2023-04-14T01:22:06.260Z,4.88
2023-04-14T01:24:48.149Z,5.25
2023-04-14T01:27:26.695Z,5.55
2023-04-14T01:30:02.378Z,5.65
2023-04-14T01:32:33.118Z,5.80
2023-04-14T01:35:08.231Z,5.95
2023-04-14T01:37:40.130Z,6.47
2023-04-14T01:40:14.047Z,6.30
2023-04-14T01:42:45.566Z,6.20
2023-04-14T01:45:24.334Z,6.28
2023-04-14T01:47:52.816Z,5.90
2023-04-14T01:50:22.043Z,5.90
2023-04-14T01:52:52.888Z,6.22
2023-04-14T01:55:20.675Z,5.90
2023-04-14T01:57:50.150Z,6.40
2023-04-14T02:00:19.362Z,5.88
2023-04-14T02:02:48.124Z,5.80
2023-04-14T02:05:18.272Z,5.50
2023-04-14T02:07:51.078Z,5.75
2023-04-14T02:10:21.368Z,5.70
2023-04-14T02:12:53.105Z,5.80
2023-04-14T02:15:24.890Z,5.57
2023-04-14T02:17:55.162Z,5.13
2023-04-14T02:20:27.760Z,5.45
2023-04-14T02:22:58.493Z,5.10
2023-04-14T02:25:30.908Z,5.50
2023-04-14T02:28:02.484Z,5.63
2023-04-14T02:30:31.924Z,5.63
2023-04-14T02:33:05.193Z,5.13
2023-04-14T02:35:38.774Z,5.13
2023-04-14T02:38:12.423Z,4.80
2023-04-14T02:40:42.350Z,5.15
2023-04-14T02:43:20.198Z,4.95
2023-04-14T02:45:54.082Z,5.22
2023-04-14T02:48:29.320Z,4.88
2023-04-14T02:51:05.529Z,4.65
2023-04-14T02:53:34.645Z,4.80
2023-04-14T02:56:03.295Z,4.70
2023-04-14T02:58:39.188Z,5.03
2023-04-14T03:01:07.826Z,5.95
2023-04-14T03:03:37.907Z,5.60
2023-04-14T03:06:09.720Z,5.50
2023-04-14T03:08:46.691Z,4.93
2023-04-14T03:11:17.199Z,5.55
2023-04-14T03:13:51.572Z,5.53
2023-04-14T03:16:20.863Z,5.93
2023-04-14T03:18:50.460Z,5.60
2023-04-14T03:21:21.068Z,6.10
2023-04-14T03:23:50.457Z,5.70
2023-04-14T03:26:20.989Z,5.82
2023-04-14T03:28:48.211Z,6.63
2023-04-14T03:31:16.348Z,6.63
2023-04-14T03:33:45.678Z,6.45
2023-04-14T03:36:13.651Z,6.93
2023-04-14T03:38:42.368Z,6.68
2023-04-14T03:41:11.821Z,6.70
2023-04-14T03:43:41.013Z,5.80
2023-04-14T03:46:08.271Z,5.85
2023-04-14T03:48:37.497Z,6.65
2023-04-14T03:51:05.365Z,6.15
2023-04-14T03:53:35.239Z,6.68
2023-04-14T03:56:04.162Z,5.88
2023-04-14T03:58:35.574Z,5.90
2023-04-14T04:01:04.403Z,5.90
2023-04-14T04:03:35.419Z,6.00
2023-04-14T04:06:07.080Z,5.30
2023-04-14T04:08:37.860Z,5.93
2023-04-14T04:11:16.185Z,5.25
2023-04-14T04:13:46.944Z,5.70
2023-04-14T04:16:16.080Z,4.95
2023-04-14T04:18:45.944Z,4.95
2023-04-14T04:21:17.847Z,4.93
2023-04-14T04:23:55.088Z,5.28
2023-04-14T04:26:25.200Z,5.07
2023-04-14T04:28:55.416Z,5.30
2023-04-14T04:31:24.944Z,5.18
2023-04-14T04:33:53.861Z,5.10
2023-04-14T04:36:21.343Z,5.15
2023-04-14T04:38:48.011Z,5.70
2023-04-14T04:41:28.565Z,4.85
2023-04-14T04:43:56.028Z,5.55
2023-04-14T04:46:50.566Z,5.38
2023-04-14T04:49:17.313Z,5.70
2023-04-14T04:51:44.419Z,4.95
2023-04-14T04:54:11.169Z,5.43
2023-04-14T04:56:37.875Z,6.05
2023-04-14T04:59:04.775Z,5.10
2023-04-14T05:01:31.610Z,4.50
2023-04-14T05:03:58.498Z,5.00
2023-04-14T05:06:25.320Z,4.45
2023-04-14T05:08:54.765Z,4.30
2023-04-14T05:11:23.046Z,4.20
2023-04-14T05:13:51.912Z,4.45
2023-04-14T05:16:20.545Z,3.80
2023-04-14T05:18:49.698Z,4.38
2023-04-14T05:21:23.112Z,4.57
2023-04-14T05:23:50.076Z,4.63
2023-04-14T05:28:46.656Z,4.60
2023-04-14T05:31:13.442Z,5.28
2023-04-14T05:33:40.206Z,5.35
2023-04-14T05:36:07.226Z,5.13
2023-04-14T05:38:37.485Z,5.60
2023-04-14T05:41:04.173Z,5.85
2023-04-14T05:43:30.832Z,5.78
2023-04-14T05:45:57.519Z,6.53
2023-04-14T05:48:24.546Z,6.32
2023-04-14T05:50:52.025Z,6.57
2023-04-14T05:53:18.961Z,6.72
2023-04-14T05:55:49.075Z,6.60
2023-04-14T05:58:15.762Z,6.13
2023-04-14T06:00:42.475Z,6.80
2023-04-14T06:03:09.326Z,6.75
2023-04-14T06:05:36.128Z,6.93
2023-04-14T06:08:02.874Z,7.07
2023-04-14T06:10:29.616Z,7.43
2023-04-14T06:12:56.364Z,7.53
2023-04-14T06:15:23.187Z,6.90
2023-04-14T06:17:51.314Z,7.15
2023-04-14T06:20:19.017Z,7.18
2023-04-14T06:22:46.853Z,7.22
2023-04-14T06:25:14.879Z,7.85
2023-04-14T06:27:41.993Z,7.93
2023-04-14T06:30:10.406Z,6.85
2023-04-14T06:32:39.242Z,7.78
2023-04-14T06:35:06.431Z,7.15
2023-04-14T06:37:33.090Z,7.70
2023-04-14T06:39:59.772Z,7.78
2023-04-14T06:42:26.434Z,7.60
2023-04-14T06:44:53.157Z,8.18
2023-04-14T06:47:21.314Z,8.57
2023-04-14T06:49:48.077Z,8.32
2023-04-14T06:52:14.758Z,9.38
2023-04-14T06:54:42.451Z,9.43
2023-04-14T06:57:09.185Z,9.30
2023-04-14T06:59:36.873Z,9.13
2023-04-14T07:02:04.929Z,9.57
2023-04-14T07:04:34.910Z,9.85
2023-04-14T07:07:05.894Z,10.57
2023-04-14T07:09:36.342Z,11.02
2023-04-14T07:12:24.269Z,11.50
2023-04-14T07:14:51.017Z,12.38
2023-04-14T07:17:22.862Z,11.82
2023-04-14T07:19:49.553Z,13.38
2023-04-14T07:22:16.277Z,11.95
2023-04-14T07:24:42.977Z,12.52
2023-04-14T07:27:10.186Z,13.48
2023-04-14T07:29:36.828Z,11.60
2023-04-14T07:32:03.554Z,10.75
2023-04-14T07:34:32.391Z,11.82
2023-04-14T07:36:59.094Z,13.10
2023-04-14T07:39:26.422Z,12.95
2023-04-14T07:41:53.165Z,13.50
2023-04-14T07:44:19.864Z,13.90
2023-04-14T07:46:48.231Z,15.38
2023-04-14T07:49:17.799Z,13.80
2023-04-14T07:51:47.077Z,14.55
2023-04-14T07:54:14.165Z,15.07
2023-04-14T07:56:40.840Z,13.98
2023-04-14T07:59:07.549Z,15.93
2023-04-14T08:01:34.241Z,13.65
2023-04-14T08:04:01.212Z,14.60
2023-04-14T08:06:28.160Z,12.48
2023-04-14T08:08:54.896Z,12.15
2023-04-14T08:11:21.630Z,13.00
2023-04-14T08:13:52.101Z,11.63
2023-04-14T08:16:20.217Z,12.10
2023-04-14T08:18:56.445Z,11.23
2023-04-14T08:21:24.560Z,10.90
2023-04-14T08:23:51.398Z,11.27
2023-04-14T08:26:18.117Z,10.40
2023-04-14T08:28:44.853Z,10.20
2023-04-14T08:31:11.602Z,9.88
2023-04-14T08:33:38.327Z,8.68
2023-04-14T08:36:05.476Z,8.68
2023-04-14T08:38:32.173Z,9.73
2023-04-14T08:41:04.026Z,8.50
2023-04-14T08:43:30.713Z,10.23
2023-04-14T08:46:00.216Z,9.68
2023-04-14T08:48:30.206Z,8.93
2023-04-14T08:51:05.740Z,8.40
2023-04-14T08:53:33.696Z,8.77
2023-04-14T08:56:03.198Z,7.80
2023-04-14T08:58:30.851Z,7.75
2023-04-14T09:00:58.421Z,7.30
2023-04-14T09:03:25.893Z,9.13
2023-04-14T09:05:52.844Z,7.60
2023-04-14T09:08:21.573Z,8.80
2023-04-14T09:10:50.933Z,9.57
2023-04-14T09:13:23.872Z,8.40
2023-04-14T09:15:50.826Z,8.90
2023-04-14T09:18:17.538Z,9.70
2023-04-14T09:20:48.061Z,10.35
2023-04-14T09:23:36.638Z,10.88
2023-04-14T09:26:04.473Z,10.10
2023-04-14T09:28:31.948Z,10.65
2023-04-14T09:31:01.307Z,11.18
2023-04-14T09:33:31.680Z,10.90
2023-04-14T09:36:01.073Z,11.88
2023-04-14T09:38:41.766Z,13.32
2023-04-14T09:41:09.241Z,14.63
2023-04-14T09:43:35.962Z,15.88
2023-04-14T09:46:07.939Z,14.80
2023-04-14T09:48:34.849Z,16.45
2023-04-14T09:51:05.509Z,14.52
2023-04-14T09:53:34.277Z,15.65
2023-04-14T09:56:03.243Z,15.45
2023-04-14T09:58:40.587Z,16.55
2023-04-14T10:01:16.296Z,16.70
2023-04-14T10:03:48.265Z,17.15
2023-04-14T10:06:23.076Z,17.42
2023-04-14T10:08:51.987Z,16.65
2023-04-14T10:11:21.693Z,18.40
2023-04-14T10:14:09.618Z,19.67
2023-04-14T10:16:36.321Z,17.10
2023-04-14T10:19:03.723Z,17.30
2023-04-14T10:21:31.076Z,15.88
2023-04-14T10:23:58.339Z,16.02
2023-04-14T10:26:25.441Z,18.42
2023-04-14T10:28:54.477Z,17.58
2023-04-14T10:31:29.885Z,17.15
2023-04-14T10:33:56.754Z,19.33
2023-04-14T10:36:27.875Z,17.90
2023-04-14T10:39:00.342Z,17.70
2023-04-14T10:41:27.938Z,16.38
2023-04-14T10:43:55.713Z,13.95
2023-04-14T10:46:22.472Z,14.10
2023-04-14T10:48:52.001Z,15.63
2023-04-14T10:51:18.683Z,16.25
2023-04-14T10:53:47.610Z,17.95
2023-04-14T10:56:14.565Z,19.23
2023-04-14T10:58:41.709Z,13.65
2023-04-14T11:01:30.291Z,16.70
2023-04-14T11:03:59.221Z,14.65
2023-04-14T11:07:08.997Z,16.55
2023-04-14T11:09:36.139Z,15.80
2023-04-14T11:12:24.619Z,15.90
2023-04-14T11:15:03.790Z,16.13
2023-04-14T11:17:30.709Z,16.80
2023-04-14T11:19:57.640Z,18.27
2023-04-14T11:22:41.189Z,18.25
2023-04-14T11:25:10.780Z,17.77
2023-04-14T11:27:37.995Z,17.98
2023-04-14T11:30:06.561Z,17.70
2023-04-14T11:32:46.583Z,17.42
2023-04-14T11:35:13.833Z,18.30
2023-04-14T11:37:40.858Z,16.67
2023-04-14T11:40:11.392Z,14.40
2023-04-14T11:43:01.453Z,15.25
2023-04-14T11:45:29.624Z,15.07
2023-04-14T11:47:57.093Z,15.80
2023-04-14T11:50:24.048Z,15.10
2023-04-14T11:52:50.694Z,15.23
2023-04-14T11:55:17.464Z,14.65
2023-04-14T11:57:45.606Z,15.30
2023-04-14T12:00:13.570Z,16.60
2023-04-14T12:02:43.817Z,15.77
2023-04-14T12:05:10.995Z,15.80
2023-04-14T12:07:37.855Z,13.50
2023-04-14T12:10:06.301Z,12.68
2023-04-14T12:12:33.170Z,13.88
2023-04-14T12:15:01.182Z,13.75
2023-04-14T12:17:35.223Z,13.60
2023-04-14T12:20:04.665Z,14.40
2023-04-14T12:22:35.973Z,13.00
2023-04-14T12:25:10.931Z,14.23
2023-04-14T12:27:37.727Z,14.37
2023-04-14T12:30:05.084Z,15.90
2023-04-14T12:32:41.877Z,16.08
2023-04-14T12:35:09.042Z,15.57
2023-04-14T12:37:35.968Z,16.20
2023-04-14T12:40:02.811Z,16.23
2023-04-14T12:42:47.308Z,14.50
2023-04-14T12:45:14.898Z,15.40
2023-04-14T12:47:50.591Z,15.93
2023-04-14T12:52:52.753Z,16.67
2023-04-14T12:55:21.727Z,15.77
2023-04-14T12:57:50.978Z,15.13
2023-04-14T13:00:17.916Z,15.18
2023-04-14T13:02:45.646Z,14.95
2023-04-14T13:05:14.139Z,16.60
2023-04-14T13:07:41.177Z,16.35
2023-04-14T13:10:08.470Z,17.05
2023-04-14T13:12:35.205Z,16.30
2023-04-14T13:15:01.993Z,15.75
2023-04-14T13:17:28.896Z,16.27
2023-04-14T13:19:55.869Z,16.98
2023-04-14T13:22:22.796Z,16.40
2023-04-14T13:24:49.638Z,15.05
2023-04-14T13:27:18.633Z,16.35
2023-04-14T13:29:45.736Z,17.30
2023-04-14T13:32:12.755Z,16.45
2023-04-14T13:34:39.940Z,16.10
2023-04-14T13:37:06.763Z,17.33
2023-04-14T13:39:33.497Z,15.13
2023-04-14T13:42:00.211Z,15.02
2023-04-14T13:44:27.125Z,14.27
2023-04-14T13:46:54.743Z,14.60
2023-04-14T13:49:21.475Z,15.85
2023-04-14T13:51:48.209Z,15.43
2023-04-14T13:54:15.011Z,14.13
2023-04-14T13:56:43.274Z,14.20
2023-04-14T13:59:12.487Z,14.75
2023-04-14T14:01:40.916Z,15.02
2023-04-14T14:04:07.783Z,14.63
2023-04-14T14:06:34.478Z,14.73
2023-04-14T14:09:06.259Z,13.35
2023-04-14T14:11:33.937Z,14.63
2023-04-14T14:14:00.887Z,14.95
2023-04-14T14:18:57.302Z,14.93
2023-04-14T14:21:23.958Z,14.73
2023-04-14T14:23:50.684Z,15.82
2023-04-14T14:26:18.490Z,14.05
2023-04-14T14:28:45.873Z,15.65
2023-04-14T14:31:14.404Z,17.40
2023-04-14T14:33:43.541Z,14.10
2023-04-14T14:36:12.447Z,11.98
2023-04-14T14:38:39.579Z,11.10
2023-04-14T14:41:06.285Z,12.00
2023-04-14T14:43:32.979Z,11.30
2023-04-14T14:45:59.714Z,10.77
2023-04-14T14:48:26.895Z,11.00
2023-04-14T14:50:53.754Z,11.02
2023-04-14T14:53:20.404Z,9.50
2023-04-14T14:55:48.241Z,10.93
2023-04-14T14:58:16.066Z,10.52
2023-04-14T15:00:44.201Z,9.57
2023-04-14T15:03:11.946Z,10.18
2023-04-14T15:05:42.404Z,10.48
2023-04-14T15:08:11.361Z,8.40
2023-04-14T15:10:38.136Z,8.65
2023-04-14T15:13:05.340Z,8.77
2023-04-14T15:15:36.326Z,8.63
2023-04-14T15:18:03.075Z,9.10
2023-04-14T15:20:29.818Z,9.70
2023-04-14T15:22:56.552Z,9.52
2023-04-14T15:25:23.437Z,10.00
2023-04-14T15:27:51.011Z,10.20
2023-04-14T15:30:19.000Z,10.63
2023-04-14T15:32:46.884Z,10.85
2023-04-14T15:35:13.692Z,11.63
2023-04-14T15:37:41.726Z,10.52
2023-04-14T15:40:10.557Z,12.60
2023-04-14T15:42:38.771Z,11.73
2023-04-14T15:45:05.866Z,11.73
2023-04-14T15:47:33.998Z,12.82
2023-04-14T15:50:07.554Z,11.90
2023-04-14T15:52:40.235Z,11.50
2023-04-14T15:55:19.056Z,12.40
2023-04-14T15:57:46.976Z,11.15
2023-04-14T16:00:18.014Z,13.38
2023-04-14T16:02:46.305Z,12.38
2023-04-14T16:05:13.618Z,11.57
2023-04-14T16:07:40.405Z,11.80
2023-04-14T16:10:07.557Z,12.38
2023-04-14T16:12:35.005Z,12.18
2023-04-14T16:15:01.830Z,11.93
2023-04-14T16:17:28.611Z,10.98
2023-04-14T16:19:55.319Z,11.50
2023-04-14T16:22:22.071Z,12.90
2023-04-14T16:24:48.703Z,12.77
2023-04-14T16:27:15.447Z,13.13
2023-04-14T16:29:42.256Z,11.43
2023-04-14T16:32:08.952Z,11.68
2023-04-14T16:34:35.702Z,12.68
2023-04-14T16:37:03.512Z,12.90
2023-04-14T16:39:31.458Z,11.88
2023-04-14T16:41:59.625Z,11.05
2023-04-14T16:44:26.325Z,11.07
2023-04-14T16:46:54.670Z,12.80
2023-04-14T16:49:22.693Z,11.55
2023-04-14T16:51:49.369Z,12.43
2023-04-14T16:54:16.119Z,11.43
2023-04-14T16:56:42.806Z,11.82
2023-04-14T16:59:09.471Z,12.60
2023-04-14T17:01:36.195Z,12.25
2023-04-14T17:04:03.893Z,10.40
2023-04-14T17:06:31.004Z,23.65
2023-04-14T17:08:57.732Z,14.32
2023-04-14T17:11:24.474Z,11.30
2023-04-14T17:13:51.137Z,10.98
2023-04-14T17:16:18.900Z,10.00
2023-04-14T17:18:45.885Z,11.07
2023-04-14T17:21:13.634Z,12.70
2023-04-14T17:23:43.959Z,10.02
2023-04-14T17:26:10.979Z,12.30
2023-04-14T17:28:37.672Z,11.18
2023-04-14T17:31:11.053Z,12.23
2023-04-14T17:33:37.822Z,14.40
2023-04-14T17:36:04.745Z,12.20
2023-04-14T17:38:31.650Z,10.27
2023-04-14T17:40:58.359Z,10.45
2023-04-14T17:43:25.033Z,12.32
2023-04-14T17:45:51.738Z,10.95
2023-04-14T17:48:20.010Z,13.55
2023-04-14T17:50:46.723Z,14.05
2023-04-14T17:53:15.676Z,12.60
2023-04-14T17:55:43.926Z,14.30
2023-04-14T17:58:10.716Z,14.45
2023-04-14T18:00:40.359Z,14.13
2023-04-14T18:03:09.432Z,15.63
2023-04-14T18:05:39.240Z,16.30
2023-04-14T18:08:06.407Z,15.15
2023-04-14T18:10:33.099Z,15.93
2023-04-14T18:12:59.764Z,16.05
2023-04-14T18:15:26.816Z,16.52
2023-04-14T18:17:53.846Z,17.58
2023-04-14T18:20:20.545Z,18.85
2023-04-14T18:22:47.257Z,18.58
2023-04-14T18:25:14.036Z,19.85
2023-04-14T18:30:10.737Z,20.35
2023-04-14T18:32:37.446Z,22.15
2023-04-14T18:35:04.501Z,21.92
2023-04-14T18:37:31.245Z,21.13
2023-04-14T18:39:57.972Z,22.98
2023-04-14T18:42:24.789Z,21.65
2023-04-14T18:44:51.450Z,20.92
2023-04-14T18:47:18.206Z,24.02
2023-04-14T18:49:46.584Z,37.00
2023-04-14T18:52:13.308Z,117.30
2023-04-14T18:54:40.061Z,34.92
2023-04-14T18:57:06.738Z,23.45
2023-04-14T18:59:33.418Z,22.92
2023-04-14T19:02:00.208Z,21.52
2023-04-14T19:04:26.992Z,22.42
2023-04-14T19:06:53.741Z,23.35
2023-04-14T19:09:20.465Z,20.98
2023-04-14T19:11:48.524Z,19.55
2023-04-14T19:14:15.188Z,18.65
2023-04-14T19:16:43.432Z,20.60
2023-04-14T19:19:10.105Z,19.02
2023-04-14T19:21:36.780Z,21.85
2023-04-14T19:24:03.671Z,19.73
2023-04-14T19:26:30.377Z,21.13
2023-04-14T19:28:57.104Z,25.80
2023-04-14T19:31:24.270Z,29.65
2023-04-14T19:33:51.023Z,32.72
2023-04-14T19:36:17.914Z,29.67
2023-04-14T19:38:44.837Z,27.70
2023-04-14T19:41:11.693Z,29.30
2023-04-14T19:43:38.371Z,29.73
2023-04-14T19:46:05.245Z,30.75
2023-04-14T19:48:33.269Z,32.75
2023-04-14T19:51:01.020Z,37.75
2023-04-14T19:53:28.283Z,35.22
2023-04-14T19:55:58.567Z,29.98
2023-04-14T19:58:26.595Z,30.55
2023-04-14T20:00:54.112Z,32.78
2023-04-14T20:03:20.963Z,33.53
2023-04-14T20:05:55.388Z,36.45
2023-04-14T20:08:25.687Z,35.53
2023-04-14T20:10:53.630Z,30.50
2023-04-14T20:13:21.795Z,31.38
2023-04-14T20:15:49.454Z,33.10
2023-04-14T20:18:17.457Z,32.58
2023-04-14T20:20:45.568Z,32.70
2023-04-14T20:23:14.091Z,32.53
2023-04-14T20:25:42.506Z,28.70
2023-04-14T20:28:09.885Z,31.23
2023-04-14T20:30:37.847Z,30.85
2023-04-14T20:33:06.751Z,34.67
2023-04-14T20:35:39.760Z,34.13
2023-04-14T20:38:08.152Z,31.27
2023-04-14T20:40:37.706Z,33.55
2023-04-14T20:43:09.178Z,37.33
2023-04-14T20:45:39.511Z,40.47
2023-04-14T20:48:16.060Z,35.83
2023-04-14T20:50:43.957Z,37.20
2023-04-14T20:53:12.848Z,41.08
2023-04-14T20:55:42.042Z,43.47
2023-04-14T20:58:09.258Z,50.80
2023-04-14T21:00:36.037Z,41.40
2023-04-14T21:03:02.867Z,40.10
2023-04-14T21:05:29.640Z,42.15
2023-04-14T21:07:56.400Z,43.05
2023-04-14T21:10:23.154Z,47.40
2023-04-14T21:15:15.960Z,42.15
2023-04-14T21:15:54.998Z,48.92
2023-04-14T21:18:23.051Z,48.08
2023-04-14T21:20:49.866Z,43.55
2023-04-14T21:23:16.675Z,51.63
2023-04-14T21:25:43.456Z,48.75
2023-04-14T21:28:10.139Z,50.72
2023-04-14T21:30:36.963Z,56.33
2023-04-14T21:33:05.409Z,49.58
2023-04-14T21:35:33.615Z,52.65
2023-04-14T21:38:00.242Z,52.30
2023-04-14T21:40:27.016Z,51.15
2023-04-14T21:42:53.757Z,56.92
2023-04-14T21:45:21.630Z,51.03
2023-04-14T21:47:48.473Z,58.88
2023-04-14T21:50:16.308Z,54.85
2023-04-14T21:52:45.099Z,55.03
2023-04-14T21:55:11.867Z,56.78
2023-04-14T21:57:44.191Z,54.20
2023-04-14T22:00:16.089Z,57.25
2023-04-14T22:02:46.052Z,55.97
2023-04-14T22:05:15.240Z,54.38
2023-04-14T22:07:42.299Z,56.60
2023-04-14T22:10:09.136Z,53.70
2023-04-14T22:12:35.871Z,51.85
2023-04-14T22:15:04.427Z,51.15
2023-04-14T22:17:31.155Z,55.42
2023-04-14T22:19:58.022Z,54.13
2023-04-14T22:22:24.931Z,51.33
2023-04-14T22:24:54.266Z,58.17
2023-04-14T22:27:20.983Z,53.10
2023-04-14T22:29:49.117Z,53.85
2023-04-14T22:32:16.104Z,53.33
2023-04-14T22:34:43.077Z,55.05
2023-04-14T22:37:09.776Z,56.55
2023-04-14T22:39:36.562Z,53.63
2023-04-14T22:42:03.272Z,54.05
2023-04-14T22:44:29.945Z,54.22
2023-04-14T22:46:56.724Z,55.85
2023-04-14T22:49:23.421Z,60.42
2023-04-14T22:51:51.232Z,56.70
2023-04-14T22:54:18.710Z,61.30
2023-04-14T22:56:46.512Z,61.33
2023-04-14T22:59:13.161Z,59.33
2023-04-14T23:01:41.301Z,59.33
2023-04-14T23:04:08.175Z,61.28
2023-04-14T23:06:36.177Z,56.47
2023-04-14T23:09:03.839Z,61.05
2023-04-14T23:11:35.360Z,59.22
2023-04-14T23:14:04.378Z,57.92
2023-04-14T23:16:33.987Z,61.38
2023-04-14T23:19:00.922Z,60.50
2023-04-14T23:21:27.778Z,63.08
2023-04-14T23:23:54.515Z,61.42
2023-04-14T23:26:21.481Z,64.65
2023-04-14T23:28:48.228Z,63.42
2023-04-14T23:31:14.978Z,63.17
2023-04-14T23:33:41.689Z,67.65
2023-04-14T23:36:08.518Z,61.42
2023-04-14T23:38:35.328Z,65.10
2023-04-14T23:41:02.130Z,64.18
2023-04-14T23:43:29.088Z,66.82
2023-04-14T23:46:00.217Z,67.00
2023-04-14T23:48:30.485Z,65.15
2023-04-14T23:51:13.406Z,65.18
2023-04-14T23:53:45.583Z,65.70
2023-04-14T23:56:12.726Z,65.60
2023-04-14T23:58:40.531Z,65.57
